Time;durP1;ratioP1;P1;durP2;ratioP2;P2;SDS_P1;SDS_P2;PMS_P1;PMS_P2;Temp;Humidity;BMP_temperature;BMP_pressure;BME280_temperature;BME280_humidity;BME280_pressure;Samples;Min_cycle;Max_cycle;Signal;HPM_P1;HPM_P2
2022/09/30 00:01:49;;;;;;;8.83;5.70;;;;;;;8.89;nan;97193.19;5054054;28;20205;-69
2022/09/30 00:04:19;;;;;;;9.20;5.20;;;;;;;8.90;nan;97192.16;5053965;28;20258;-69
2022/09/30 00:06:46;;;;;;;8.80;5.33;;;;;;;8.89;nan;97193.19;5053521;28;20687;-69
2022/09/30 00:09:13;;;;;;;7.90;5.60;;;;;;;8.89;nan;97187.91;5053879;28;20217;-69
2022/09/30 00:11:40;;;;;;;7.57;5.37;;;;;;;8.91;nan;97191.16;5053516;28;20712;-69
2022/09/30 00:14:08;;;;;;;7.37;4.87;;;;;;;8.90;nan;97189.50;5053826;28;20205;-69
2022/09/30 00:16:36;;;;;;;7.13;5.33;;;;;;;8.93;nan;97191.72;5053723;28;20288;-69
2022/09/30 00:19:04;;;;;;;7.03;4.90;;;;;;;8.92;nan;97187.44;5054662;28;20209;-69
2022/09/30 00:21:32;;;;;;;7.73;4.87;;;;;;;8.97;nan;97196.31;5053447;28;20307;-69
2022/09/30 00:23:59;;;;;;;6.47;5.03;;;;;;;9.00;nan;97201.16;5053726;28;20205;-69
2022/09/30 00:26:26;;;;;;;6.10;4.53;;;;;;;9.00;nan;97189.78;5053329;28;20687;-69
2022/09/30 00:28:55;;;;;;;5.83;5.13;;;;;;;9.01;nan;97192.16;5053405;28;20209;-69
2022/09/30 00:31:23;;;;;;;6.70;5.03;;;;;;;9.06;nan;97197.59;5053286;28;20229;-69
2022/09/30 00:36:30;;;;;;;7.27;5.20;;;;;;;8.93;nan;97194.34;5053002;28;20195;-69
2022/09/30 00:38:57;;;;;;;9.07;5.17;;;;;;;9.02;nan;97203.59;5053166;28;20209;-69
2022/09/30 00:41:23;;;;;;;8.23;5.30;;;;;;;8.97;nan;97203.47;5053094;28;20312;-69
2022/09/30 00:43:52;;;;;;;6.30;5.00;;;;;;;9.03;nan;97199.88;5053126;28;20570;-69
2022/09/30 00:46:21;;;;;;;5.77;5.00;;;;;;;9.03;nan;97199.88;5053419;28;20231;-69
2022/09/30 00:48:52;;;;;;;6.77;5.20;;;;;;;9.04;nan;97198.84;5053161;28;20201;-69
2022/09/30 00:51:27;;;;;;;7.77;5.03;;;;;;;9.03;nan;97206.00;5053336;28;20229;-69
2022/09/30 00:54:20;;;;;;;7.47;5.60;;;;;;;9.00;nan;97203.03;5052249;28;20548;-69
2022/09/30 00:56:52;;;;;;;8.33;5.50;;;;;;;9.00;nan;97203.03;5048204;28;20533;-69
2022/09/30 00:59:30;;;;;;;8.10;5.17;;;;;;;9.07;nan;97209.00;5052123;28;20211;-69
2022/09/30 01:01:56;;;;;;;8.40;5.30;;;;;;;9.05;nan;97208.44;5053351;28;20327;-69
2022/09/30 01:04:25;;;;;;;5.90;4.93;;;;;;;9.05;nan;97216.41;5053240;28;20209;-69
2022/09/30 01:06:52;;;;;;;7.77;5.00;;;;;;;9.08;nan;97218.56;5055893;28;20209;-69
2022/09/30 01:09:19;;;;;;;8.00;5.40;;;;;;;9.06;nan;97212.69;5057301;28;20208;-69
2022/09/30 01:11:47;;;;;;;8.93;5.70;;;;;;;9.00;nan;97211.75;5057331;28;20570;-69
2022/09/30 01:14:27;;;;;;;7.13;5.47;;;;;;;9.03;nan;97213.16;5057310;28;20208;-69
2022/09/30 01:17:05;;;;;;;8.03;5.23;;;;;;;9.06;nan;97210.03;5055610;28;20825;-69
2022/09/30 01:20:02;;;;;;;6.17;5.30;;;;;;;9.04;nan;97212.94;5057176;28;20243;-69
2022/09/30 01:22:40;;;;;;;6.20;5.07;;;;;;;9.03;nan;97210.50;5056069;28;20251;-69
2022/09/30 01:25:14;;;;;;;6.03;5.10;;;;;;;9.07;nan;97222.25;5056733;28;20668;-69
2022/09/30 01:27:58;;;;;;;6.70;5.30;;;;;;;9.08;nan;97214.09;5057054;28;20275;-69
2022/09/30 01:30:55;;;;;;;7.43;5.23;;;;;;;9.11;nan;97212.81;5056979;28;20225;-69
2022/09/30 01:33:46;;;;;;;6.63;4.53;;;;;;;9.09;nan;97214.91;5057019;28;20190;-69
2022/09/30 01:36:22;;;;;;;7.70;4.90;;;;;;;9.05;nan;97213.75;5055443;28;20561;-69
2022/09/30 01:39:11;;;;;;;8.67;4.73;;;;;;;9.09;nan;97212.25;5056818;28;20228;-69
2022/09/30 01:41:44;;;;;;;7.90;5.07;;;;;;;9.10;nan;97212.00;5056387;28;20716;-69
2022/09/30 01:44:11;;;;;;;12.47;5.50;;;;;;;9.09;nan;97204.28;5056783;28;20190;-69
2022/09/30 01:46:43;;;;;;;7.93;4.97;;;;;;;9.07;nan;97206.34;5056322;28;20205;-69
2022/09/30 01:49:24;;;;;;;10.10;5.63;;;;;;;9.05;nan;97211.88;5056652;28;20189;-69
2022/09/30 01:52:02;;;;;;;7.57;5.90;;;;;;;9.02;nan;97203.59;5056664;28;20205;-69
2022/09/30 01:54:50;;;;;;;11.27;5.10;;;;;;;9.01;nan;97209.94;5056177;28;20625;-70
2022/09/30 01:57:41;;;;;;;10.83;5.53;;;;;;;9.00;nan;97213.63;5056376;28;20220;-69
2022/09/30 02:00:11;;;;;;;7.87;5.37;;;;;;;8.99;nan;97217.28;5056345;28;20236;-69
2022/09/30 02:02:53;;;;;;;9.87;5.47;;;;;;;8.92;nan;97220.03;5056427;28;20240;-69
2022/09/30 02:05:36;;;;;;;6.07;5.33;;;;;;;8.94;nan;97228.59;5055212;28;20216;-69
2022/09/30 02:08:17;;;;;;;9.47;5.77;;;;;;;9.00;nan;97240.13;5055992;28;20633;-69
2022/09/30 02:11:01;;;;;;;7.90;5.60;;;;;;;8.98;nan;97243.00;5056210;28;20232;-69
2022/09/30 02:13:33;;;;;;;10.47;6.50;;;;;;;8.92;nan;97251.84;5055906;28;20200;-69
2022/09/30 02:16:11;;;;;;;10.83;6.40;;;;;;;8.87;nan;97243.00;5055749;28;20190;-69
2022/09/30 02:18:47;;;;;;;8.13;6.20;;;;;;;8.91;nan;97247.59;5055631;28;20598;-69
2022/09/30 02:21:20;;;;;;;11.53;6.23;;;;;;;8.94;nan;97248.97;5056026;28;20228;-69
2022/09/30 02:23:52;;;;;;;9.57;6.40;;;;;;;8.85;nan;97245.03;5054619;28;20190;-69
2022/09/30 02:26:25;;;;;;;11.40;6.37;;;;;;;8.91;nan;97247.59;5056019;28;20193;-69
2022/09/30 02:29:05;;;;;;;12.37;6.30;;;;;;;8.92;nan;97256.38;5055925;28;20201;-69
2022/09/30 02:31:39;;;;;;;13.23;6.83;;;;;;;8.88;nan;97250.69;5054668;28;20228;-69
2022/09/30 02:34:12;;;;;;;9.73;6.07;;;;;;;8.84;nan;97256.69;5055840;28;20200;-69
2022/09/30 02:36:52;;;;;;;7.73;6.20;;;;;;;8.84;nan;97261.97;5055599;28;20205;-69
2022/09/30 02:39:42;;;;;;;9.03;6.23;;;;;;;8.74;nan;97259.09;5055561;28;20209;-69
2022/09/30 02:42:19;;;;;;;13.10;6.80;;;;;;;8.70;nan;97261.38;5055719;28;20251;-69
2022/09/30 02:44:47;;;;;;;12.03;7.23;;;;;;;8.72;nan;97261.97;5055687;28;20284;-69
2022/09/30 02:47:25;;;;;;;9.30;6.40;;;;;;;8.65;nan;97261.22;5055530;28;20210;-69
2022/09/30 02:50:01;;;;;;;9.63;6.63;;;;;;;8.60;nan;97262.97;5055065;28;20688;-69
2022/09/30 02:53:00;;;;;;;8.70;6.30;;;;;;;8.58;nan;97265.00;5054281;28;20193;-69
2022/09/30 02:55:46;;;;;;;9.33;6.80;;;;;;;8.58;nan;97267.66;5055881;28;20189;-69
2022/09/30 02:58:18;;;;;;;10.40;7.10;;;;;;;8.52;nan;97274.69;5055131;28;20225;-69
2022/09/30 03:00:45;;;;;;;12.97;6.93;;;;;;;8.51;nan;97269.59;5055099;28;20229;-69
2022/09/30 03:03:27;;;;;;;12.40;7.10;;;;;;;8.53;nan;97278.13;5055087;28;20201;-69
2022/09/30 03:05:53;;;;;;;10.60;7.23;;;;;;;8.49;nan;97277.78;5055223;28;20189;-69
2022/09/30 03:08:19;;;;;;;10.43;7.03;;;;;;;8.49;nan;97291.03;5055085;28;20201;-69
2022/09/30 03:10:50;;;;;;;8.37;6.33;;;;;;;8.50;nan;97299.75;5054897;28;20225;-69
2022/09/30 03:13:38;;;;;;;14.30;7.37;;;;;;;8.50;nan;97300.56;5054740;28;20189;-69
2022/09/30 03:16:31;;;;;;;11.03;6.97;;;;;;;8.47;nan;97287.78;5053947;28;20190;-69
2022/09/30 03:19:25;;;;;;;10.50;6.80;;;;;;;8.50;nan;97283.88;5054844;28;20206;-69
2022/09/30 03:22:04;;;;;;;9.97;6.40;;;;;;;8.47;nan;97294.94;5053764;28;20189;-69
2022/09/30 03:24:45;;;;;;;9.90;5.93;;;;;;;8.50;nan;97300.56;5054865;28;20256;-69
2022/09/30 03:27:27;;;;;;;7.90;5.53;;;;;;;8.59;nan;97303.72;5053670;28;20277;-69
2022/09/30 03:30:06;;;;;;;6.80;4.87;;;;;;;8.62;nan;97304.09;5052937;28;20225;-69
2022/09/30 03:33:00;;;;;;;8.10;5.20;;;;;;;8.69;nan;97304.78;5054660;28;20190;-69
2022/09/30 03:35:40;;;;;;;7.10;4.97;;;;;;;8.63;nan;97297.75;5054974;28;20213;-69
2022/09/30 03:38:12;;;;;;;7.23;5.17;;;;;;;8.60;nan;97297.41;5052779;28;20217;-69
2022/09/30 03:40:51;;;;;;;7.30;5.13;;;;;;;8.61;nan;97301.66;5054079;28;20239;-69
2022/09/30 03:43:26;;;;;;;9.30;5.27;;;;;;;8.58;nan;97307.41;5054383;28;20201;-69
2022/09/30 03:46:04;;;;;;;5.97;4.60;;;;;;;8.52;nan;97305.66;5054024;28;20189;-69
2022/09/30 03:48:32;;;;;;;7.23;4.80;;;;;;;8.50;nan;97305.06;5054393;28;20185;-69
2022/09/30 03:51:00;;;;;;;6.63;4.57;;;;;;;8.51;nan;97307.47;5053974;28;20235;-70
2022/09/30 03:53:27;;;;;;;5.83;4.60;;;;;;;8.45;nan;97305.75;5054284;28;20204;-69
2022/09/30 03:55:54;;;;;;;6.47;4.77;;;;;;;8.42;nan;97303.53;5054759;28;20205;-69
2022/09/30 03:58:23;;;;;;;9.07;5.40;;;;;;;8.48;nan;97320.38;5054001;28;20236;-69
2022/09/30 04:00:52;;;;;;;9.40;4.63;;;;;;;8.49;nan;97319.34;5053573;28;20774;-69
2022/09/30 04:03:20;;;;;;;7.57;5.20;;;;;;;8.44;nan;97317.38;5053567;28;20667;-69
2022/09/30 04:05:47;;;;;;;5.90;5.30;;;;;;;8.36;nan;97311.56;5054599;28;20201;-69
2022/09/30 04:08:14;;;;;;;12.80;5.77;;;;;;;8.33;nan;97315.47;5053652;28;20208;-69
2022/09/30 04:10:42;;;;;;;6.23;5.27;;;;;;;8.32;nan;97334.25;5053866;28;20565;-69
2022/09/30 04:13:09;;;;;;;9.17;5.53;;;;;;;8.33;nan;97341.16;5053916;28;20231;-69
2022/09/30 04:15:36;;;;;;;10.43;5.50;;;;;;;8.17;nan;97337.22;5053516;28;20226;-70
2022/09/30 04:18:04;;;;;;;7.93;5.80;;;;;;;8.13;nan;97340.50;5053647;28;20225;-69
2022/09/30 04:20:31;;;;;;;7.87;5.47;;;;;;;8.17;nan;97344.34;5053539;28;20232;-69
2022/09/30 04:22:59;;;;;;;8.20;5.53;;;;;;;8.13;nan;97351.94;5053365;28;20576;-69
2022/09/30 04:25:27;;;;;;;7.87;5.93;;;;;;;8.14;nan;97355.41;5053513;28;20209;-70
2022/09/30 04:27:54;;;;;;;6.50;5.30;;;;;;;8.12;nan;97346.84;5053182;28;20217;-69
2022/09/30 04:30:20;;;;;;;9.43;5.30;;;;;;;8.13;nan;97346.63;5053389;28;20225;-69
2022/09/30 04:32:47;;;;;;;9.93;5.93;;;;;;;8.11;nan;97347.88;5053400;28;20205;-69
2022/09/30 04:35:14;;;;;;;8.07;5.53;;;;;;;8.13;nan;97348.47;5053063;28;20205;-69
2022/09/30 04:37:45;;;;;;;8.87;6.00;;;;;;;8.08;nan;97343.84;5053276;28;20204;-69
2022/09/30 04:40:14;;;;;;;6.93;5.30;;;;;;;8.11;nan;97348.66;5052232;28;20232;-69
2022/09/30 04:42:41;;;;;;;10.07;5.30;;;;;;;7.97;nan;97349.84;5053080;28;20303;-69
2022/09/30 04:45:10;;;;;;;6.90;5.20;;;;;;;7.99;nan;97352.28;5052713;28;20205;-69
2022/09/30 04:47:36;;;;;;;9.33;5.17;;;;;;;7.92;nan;97356.84;5052786;28;20213;-69
2022/09/30 04:50:03;;;;;;;7.03;5.00;;;;;;;7.89;nan;97354.63;5053516;28;20336;-69
2022/09/30 04:52:29;;;;;;;8.10;5.13;;;;;;;7.88;nan;97360.94;5053932;28;20215;-69
2022/09/30 04:54:57;;;;;;;7.67;5.00;;;;;;;7.89;nan;97354.63;5053599;28;20235;-69
2022/09/30 04:57:24;;;;;;;6.60;5.30;;;;;;;7.73;nan;97360.47;5053929;28;20208;-69
2022/09/30 04:59:50;;;;;;;7.93;5.60;;;;;;;7.76;nan;97365.34;5053110;28;20256;-69
2022/09/30 05:02:17;;;;;;;7.00;5.47;;;;;;;7.73;nan;97366.56;5052719;28;20286;-69
2022/09/30 05:04:43;;;;;;;9.80;5.67;;;;;;;7.71;nan;97370.47;5052923;28;20205;-69
2022/09/30 05:07:10;;;;;;;6.63;4.80;;;;;;;7.66;nan;97367.66;5053065;28;20236;-69
2022/09/30 05:09:36;;;;;;;10.97;6.47;;;;;;;7.74;nan;97380.63;5053722;28;20231;-69
2022/09/30 05:12:03;;;;;;;7.00;6.10;;;;;;;7.79;nan;97378.13;5052866;28;20201;-69
2022/09/30 05:14:30;;;;;;;7.63;5.53;;;;;;;7.84;nan;97383.59;5053030;28;20213;-69
2022/09/30 05:16:56;;;;;;;7.23;6.17;;;;;;;7.74;nan;97393.84;5052648;28;20216;-69
2022/09/30 05:19:23;;;;;;;7.50;5.70;;;;;;;7.76;nan;97394.44;5052484;28;20225;-69
2022/09/30 05:21:50;;;;;;;8.83;5.97;;;;;;;7.75;nan;97390.19;5052517;28;20216;-69
2022/09/30 05:24:17;;;;;;;7.03;5.80;;;;;;;7.72;nan;97391.41;5052617;28;20212;-69
2022/09/30 05:26:43;;;;;;;7.83;5.90;;;;;;;7.66;nan;97389.66;5052708;28;20213;-69
2022/09/30 05:29:10;;;;;;;7.50;6.27;;;;;;;7.60;nan;97398.44;5052673;28;20198;-69
2022/09/30 05:31:36;;;;;;;9.97;5.87;;;;;;;7.61;nan;97392.09;5053252;28;20567;-69
2022/09/30 05:34:03;;;;;;;7.00;5.60;;;;;;;7.56;nan;97391.94;5052498;28;20209;-69
2022/09/30 05:36:29;;;;;;;9.87;6.30;;;;;;;7.57;nan;97398.06;5052627;28;20257;-69
2022/09/30 05:38:55;;;;;;;7.87;6.03;;;;;;;7.61;nan;97401.91;5052097;28;20723;-69
2022/09/30 05:41:23;;;;;;;9.70;6.10;;;;;;;7.65;nan;97405.72;5052025;28;20601;-69
2022/09/30 05:43:49;;;;;;;8.30;6.30;;;;;;;7.64;nan;97404.13;5052074;28;20242;-69
2022/09/30 05:46:17;;;;;;;8.97;5.53;;;;;;;7.63;nan;97400.66;5052233;28;20557;-69
2022/09/30 05:48:45;;;;;;;10.13;6.17;;;;;;;7.61;nan;97407.97;5052493;28;20205;-69
2022/09/30 05:51:11;;;;;;;9.30;5.80;;;;;;;7.65;nan;97417.09;5052242;28;20226;-70
2022/09/30 05:53:39;;;;;;;8.23;6.20;;;;;;;7.72;nan;97409.94;5055978;28;20209;-69
2022/09/30 05:56:10;;;;;;;11.37;7.20;;;;;;;7.69;nan;97409.56;5056047;28;20699;-69
2022/09/30 05:58:39;;;;;;;13.23;7.00;;;;;;;7.69;nan;97415.66;5055697;28;20240;-69
2022/09/30 06:01:11;;;;;;;11.37;6.90;;;;;;;7.77;nan;97419.84;5055952;28;20390;-69
2022/09/30 06:03:37;;;;;;;11.57;7.67;;;;;;;7.77;nan;97420.69;5056194;28;20189;-69
2022/09/30 06:06:06;;;;;;;11.97;8.07;;;;;;;7.83;nan;97422.44;5055787;28;20258;-69
2022/09/30 06:08:32;;;;;;;10.47;7.33;;;;;;;7.86;nan;97429.97;5055712;28;20201;-69
2022/09/30 06:10:59;;;;;;;12.60;8.50;;;;;;;7.84;nan;97428.56;5055917;28;20221;-69
2022/09/30 06:13:27;;;;;;;12.00;8.13;;;;;;;7.95;nan;97427.84;5055648;28;20213;-69
2022/09/30 06:16:01;;;;;;;11.63;8.13;;;;;;;7.92;nan;97430.94;5055607;28;20209;-69
2022/09/30 06:18:29;;;;;;;17.03;9.13;;;;;;;7.94;nan;97436.81;5055242;28;20221;-70
2022/09/30 06:21:00;;;;;;;12.43;9.77;;;;;;;7.98;nan;97433.53;5055353;28;20229;-70
2022/09/30 06:23:26;;;;;;;21.37;12.97;;;;;;;7.99;nan;97436.97;5055768;28;20329;-70
2022/09/30 06:25:54;;;;;;;16.40;13.40;;;;;;;7.99;nan;97436.97;5055263;28;20683;-69
2022/09/30 06:28:22;;;;;;;16.93;14.60;;;;;;;8.07;nan;97449.94;5055443;28;20201;-69
2022/09/30 06:30:49;;;;;;;20.37;15.37;;;;;;;8.19;nan;97450.84;5055274;28;20236;-69
2022/09/30 06:33:16;;;;;;;19.47;16.27;;;;;;;8.19;nan;97448.22;5055407;28;20201;-69
2022/09/30 06:35:42;;;;;;;22.33;17.43;;;;;;;8.24;nan;97459.78;5055313;28;20633;-70
2022/09/30 06:38:10;;;;;;;19.93;16.23;;;;;;;8.27;nan;97466.47;5054722;28;20213;-72
2022/09/30 06:40:37;;;;;;;17.83;15.33;;;;;;;8.24;nan;97461.63;5054724;28;20580;-72
2022/09/30 06:43:05;;;;;;;21.17;16.97;;;;;;;8.22;nan;97471.59;5055118;28;20250;-74
2022/09/30 06:45:34;;;;;;;23.73;17.33;;;;;;;8.18;nan;97475.69;5055405;28;20206;-74
2022/09/30 06:48:02;;;;;;;44.73;19.07;;;;;;;8.37;nan;97475.53;5055108;28;20686;-75
2022/09/30 06:50:30;;;;;;;19.70;17.10;;;;;;;8.45;nan;97477.09;5054972;28;20736;-74
2022/09/30 06:52:59;;;;;;;23.27;17.87;;;;;;;8.29;nan;97472.38;5055140;28;20206;-74
2022/09/30 06:55:26;;;;;;;23.00;18.67;;;;;;;8.27;nan;97485.81;5055297;28;20206;-73
2022/09/30 06:57:54;;;;;;;23.87;18.60;;;;;;;8.33;nan;97478.84;5054880;28;20686;-73
2022/09/30 07:00:20;;;;;;;21.07;18.27;;;;;;;8.40;nan;97479.59;5055508;28;20225;-73
2022/09/30 07:02:47;;;;;;;22.57;18.73;;;;;;;8.42;nan;97488.13;5054357;28;20575;-73
2022/09/30 07:05:15;;;;;;;21.50;18.60;;;;;;;8.38;nan;97497.53;5054736;28;20209;-73
2022/09/30 07:07:42;;;;;;;19.97;17.90;;;;;;;8.40;nan;97492.81;5055092;28;20208;-73
2022/09/30 07:10:10;;;;;;;19.90;16.70;;;;;;;8.42;nan;97498.72;5054895;28;20573;-73
2022/09/30 07:12:36;;;;;;;22.53;18.50;;;;;;;8.24;nan;97499.50;5054580;28;20579;-73
2022/09/30 07:15:03;;;;;;;21.60;18.07;;;;;;;8.36;nan;97510.19;5054692;28;20205;-73
2022/09/30 07:17:29;;;;;;;20.00;17.70;;;;;;;8.44;nan;97502.78;5054445;28;20209;-73
2022/09/30 07:19:57;;;;;;;21.37;17.87;;;;;;;8.51;nan;97505.38;5054139;28;20730;-73
2022/09/30 07:22:30;;;;;;;27.97;18.63;;;;;;;8.55;nan;97503.91;5054615;28;20209;-73
2022/09/30 07:24:58;;;;;;;25.47;19.10;;;;;;;8.55;nan;97503.91;5054133;28;20189;-73
2022/09/30 07:27:27;;;;;;;23.30;19.97;;;;;;;8.53;nan;97516.53;5054143;28;20656;-72
2022/09/30 07:29:53;;;;;;;21.67;19.33;;;;;;;8.59;nan;97523.59;5054464;28;20223;-72
2022/09/30 07:32:23;;;;;;;23.90;19.40;;;;;;;8.49;nan;97524.13;5054537;28;20279;-73
2022/09/30 07:34:50;;;;;;;22.63;19.13;;;;;;;8.62;nan;97524.00;5054273;28;20685;-73
2022/09/30 07:37:18;;;;;;;23.43;19.43;;;;;;;8.65;nan;97517.44;5054521;28;20215;-73
2022/09/30 07:39:47;;;;;;;19.30;17.30;;;;;;;8.70;nan;97522.91;5053891;28;20715;-72
2022/09/30 07:42:20;;;;;;;24.47;18.97;;;;;;;8.73;nan;97517.16;5053881;28;20190;-73
2022/09/30 07:44:47;;;;;;;23.37;19.63;;;;;;;8.78;nan;97527.91;5054314;28;20213;-72
2022/09/30 07:55:46;;;;;;;22.33;16.70;;;;;;;9.09;nan;97548.97;5012135;28;20694;-72
2022/09/30 07:58:25;;;;;;;;;;;;;;;;;;;;;
2022/09/30 08:04:38;;;;;;;20.23;16.90;;;;;;;9.44;nan;97558.75;5029098;28;20209;-73
2022/09/30 08:07:05;;;;;;;19.47;15.63;;;;;;;9.40;nan;97554.09;5053180;28;20263;-73
2022/09/30 08:10:31;;;;;;;17.67;15.77;;;;;;;9.51;nan;97559.44;5053329;28;20228;-72
2022/09/30 08:12:58;;;;;;;17.80;14.23;;;;;;;9.59;nan;97559.16;5041658;28;20691;-72
2022/09/30 08:34:57;;;;;;;17.23;15.07;;;;;;;9.95;nan;97588.25;4968479;28;20211;-73
2022/09/30 08:40:57;;;;;;;18.23;14.70;;;;;;;10.16;nan;97587.78;4953024;29;20391;-73
2022/09/30 08:47:39;;;;;;;18.57;15.10;;;;;;;10.20;nan;97582.81;4953286;29;20727;-73
2022/09/30 08:50:33;;;;;;;15.97;14.17;;;;;;;10.33;nan;97571.97;4949795;29;20229;-73
2022/09/30 08:53:05;;;;;;;16.70;15.00;;;;;;;10.30;nan;97591.84;4990929;28;20252;-73
2022/09/30 08:55:39;;;;;;;19.00;16.17;;;;;;;10.39;nan;97585.16;5051668;28;20660;-72
2022/09/30 09:02:14;;;;;;;18.70;15.77;;;;;;;10.45;nan;97573.59;5011190;28;20230;-73
2022/09/30 09:15:00;;;;;;;16.73;13.77;;;;;;;10.89;nan;97598.81;5052460;28;20735;-72
2022/09/30 09:36:55;;;;;;;13.87;11.77;;;;;;;11.79;nan;97594.63;4997154;28;20226;-72
2022/09/30 09:39:55;;;;;;;12.77;11.50;;;;;;;11.81;nan;97598.69;4997153;28;20219;-73
2022/09/30 09:46:12;;;;;;;9.23;8.23;;;;;;;12.29;nan;97601.69;4996735;28;20551;-69
2022/09/30 09:48:38;;;;;;;8.83;7.90;;;;;;;11.90;nan;97601.78;4996176;28;20196;-72
2022/09/30 09:51:26;;;;;;;10.27;8.17;;;;;;;12.17;nan;97597.47;4997698;28;20236;-73
2022/09/30 09:53:56;;;;;;;12.13;10.20;;;;;;;12.64;nan;97607.63;4997471;28;20188;-73
2022/09/30 09:56:28;;;;;;;10.43;9.43;;;;;;;12.48;nan;97603.06;4997091;28;20281;-73
2022/09/30 09:59:09;;;;;;;10.70;9.60;;;;;;;12.53;nan;97602.38;4997290;28;20194;-73
2022/09/30 10:01:39;;;;;;;11.50;9.67;;;;;;;12.62;nan;97599.03;4995826;28;20231;-73
2022/09/30 10:04:15;;;;;;;11.00;8.80;;;;;;;12.54;nan;97599.47;4996520;28;20206;-72
2022/09/30 10:06:47;;;;;;;8.77;7.87;;;;;;;12.79;nan;97607.84;4997403;28;20194;-72
2022/09/30 10:09:24;;;;;;;8.60;7.80;;;;;;;12.55;nan;97608.25;4996690;28;20212;-71
2022/09/30 10:11:52;;;;;;;8.60;7.70;;;;;;;12.55;nan;97608.25;4996702;28;20209;-73
2022/09/30 10:14:21;;;;;;;8.97;8.07;;;;;;;12.73;nan;97616.00;4996442;28;20685;-73
2022/09/30 10:16:48;;;;;;;9.73;8.63;;;;;;;12.71;nan;97613.59;5011398;28;20570;-73
2022/09/30 10:19:25;;;;;;;8.93;7.83;;;;;;;12.87;nan;97615.44;4995510;28;20254;-73
2022/09/30 10:22:13;;;;;;;9.97;8.10;;;;;;;13.30;nan;97607.56;4996723;28;20199;-72
2022/09/30 10:24:40;;;;;;;10.70;8.27;;;;;;;13.45;nan;97612.28;4996377;28;20210;-73
2022/09/30 10:27:50;;;;;;;9.63;8.10;;;;;;;13.28;nan;97615.00;4996550;28;20214;-73
2022/09/30 10:30:45;;;;;;;7.63;6.93;;;;;;;13.31;nan;97611.84;4975035;28;20235;-73
2022/09/30 10:33:40;;;;;;;6.97;5.70;;;;;;;13.39;nan;97614.09;4995863;28;20229;-74
2022/09/30 10:36:19;;;;;;;5.73;5.13;;;;;;;13.48;nan;97620.59;4996239;28;20196;-73
2022/09/30 10:38:53;;;;;;;6.40;4.47;;;;;;;13.63;nan;97618.16;4996167;28;20199;-73
2022/09/30 10:41:26;;;;;;;9.90;5.93;;;;;;;13.55;nan;97623.09;4996871;28;20219;-73
2022/09/30 10:43:56;;;;;;;6.43;5.67;;;;;;;13.45;nan;97621.13;4995656;28;20199;-72
2022/09/30 10:46:43;;;;;;;7.50;5.57;;;;;;;13.41;nan;97629.84;4995876;28;20266;-73
2022/09/30 10:49:40;;;;;;;7.37;5.30;;;;;;;13.97;nan;97624.94;4996007;28;20274;-74
2022/09/30 10:52:19;;;;;;;6.63;5.93;;;;;;;14.07;nan;97616.25;4986844;28;20573;-74
2022/09/30 10:54:50;;;;;;;6.27;5.30;;;;;;;14.27;nan;97619.97;4995973;28;20286;-74
2022/09/30 10:57:35;;;;;;;7.03;5.43;;;;;;;14.32;nan;97622.69;4995608;28;20230;-73
2022/09/30 11:00:07;;;;;;;5.47;4.50;;;;;;;14.35;nan;97616.84;4995826;28;20243;-73
2022/09/30 11:02:52;;;;;;;6.23;5.60;;;;;;;14.13;nan;97618.72;4995760;28;20210;-74
2022/09/30 11:05:29;;;;;;;9.43;5.60;;;;;;;14.19;nan;97623.06;4995823;28;20198;-74
2022/09/30 11:08:13;;;;;;;6.20;5.60;;;;;;;13.78;nan;97618.31;5010417;28;20202;-73
2022/09/30 11:10:56;;;;;;;5.23;4.40;;;;;;;14.08;nan;97628.56;4995356;28;20226;-74
2022/09/30 11:13:58;;;;;;;4.83;3.30;;;;;;;14.04;nan;97619.41;4995931;28;20297;-74
2022/09/30 11:16:37;;;;;;;4.30;3.90;;;;;;;14.08;nan;97620.53;4996245;28;20195;-74
2022/09/30 11:19:57;;;;;;;3.90;3.50;;;;;;;14.17;nan;97617.16;4995258;28;20198;-74
2022/09/30 11:22:37;;;;;;;4.67;3.03;;;;;;;14.11;nan;97612.00;4973728;28;20228;-73
2022/09/30 11:25:04;;;;;;;4.13;3.73;;;;;;;13.95;nan;97608.38;4991712;28;20211;-74
2022/09/30 11:27:41;;;;;;;4.73;3.93;;;;;;;14.21;nan;97615.63;4995205;28;20207;-73
2022/09/30 11:30:17;;;;;;;3.90;2.80;;;;;;;14.21;nan;97607.63;4995468;28;20233;-74
2022/09/30 11:33:23;;;;;;;4.23;3.33;;;;;;;14.24;nan;97617.00;4995163;28;20286;-72
2022/09/30 11:36:04;;;;;;;3.73;3.43;;;;;;;14.27;nan;97613.81;5007761;28;20191;-73
2022/09/30 11:38:40;;;;;;;6.57;4.83;;;;;;;14.15;nan;97615.81;4993969;28;20187;-73
2022/09/30 11:41:15;;;;;;;7.07;4.40;;;;;;;14.18;nan;97626.78;4994617;28;20690;-73
2022/09/30 11:44:13;;;;;;;4.87;4.47;;;;;;;14.06;nan;97617.31;4993859;28;20236;-74
2022/09/30 11:47:30;;;;;;;5.27;4.77;;;;;;;14.24;nan;97620.47;4995806;28;20196;-72
2022/09/30 11:50:26;;;;;;;5.87;4.70;;;;;;;14.33;nan;97620.84;4953023;28;20251;-73
2022/09/30 11:53:05;;;;;;;6.67;5.40;;;;;;;14.60;nan;97616.28;4993182;28;20214;-72
2022/09/30 11:55:52;;;;;;;5.33;4.70;;;;;;;14.37;nan;97620.06;5009637;28;20210;-73
2022/09/30 11:58:33;;;;;;;8.00;5.10;;;;;;;14.32;nan;97617.34;4994630;28;20210;-73
2022/09/30 12:01:31;;;;;;;4.23;3.77;;;;;;;14.13;nan;97615.22;5008481;28;20237;-74
2022/09/30 12:07:58;;;;;;;3.90;2.67;;;;;;;14.47;nan;97624.72;4983661;28;20211;-73
2022/09/30 12:10:36;;;;;;;2.90;2.60;;;;;;;14.53;nan;97619.16;4957068;28;20223;-72
2022/09/30 12:13:11;;;;;;;3.27;2.90;;;;;;;14.78;nan;97611.31;4994678;28;20196;-72
2022/09/30 12:15:40;;;;;;;4.80;4.00;;;;;;;14.90;nan;97616.50;4995471;28;20282;-72
2022/09/30 12:18:13;;;;;;;4.30;3.90;;;;;;;14.82;nan;97623.13;4994183;28;20214;-73
2022/09/30 12:20:53;;;;;;;4.80;3.00;;;;;;;14.63;nan;97621.09;4994304;28;20234;-73
2022/09/30 12:23:27;;;;;;;4.70;3.00;;;;;;;14.37;nan;97614.72;4994207;28;20230;-73
2022/09/30 12:36:43;;;;;;;3.30;3.00;;;;;;;14.96;nan;97602.88;4941598;28;20246;-72
2022/09/30 12:46:30;;;;;;;3.67;3.00;;;;;;;14.96;nan;97610.91;4970988;28;20202;-72
2022/09/30 12:49:08;;;;;;;3.60;3.30;;;;;;;14.76;nan;97613.47;4995541;28;20238;-73
2022/09/30 12:51:54;;;;;;;3.50;2.70;;;;;;;14.86;nan;97608.19;4993568;28;20218;-72
2022/09/30 12:57:34;;;;;;;3.03;2.63;;;;;;;15.25;nan;97600.66;4933819;29;20756;-72
2022/09/30 13:06:06;;;;;;;4.40;3.30;;;;;;;15.39;nan;97607.19;5005471;28;20290;-72
2022/09/30 13:09:08;;;;;;;3.57;2.80;;;;;;;15.45;nan;97612.34;4993514;28;20271;-73
2022/09/30 13:25:11;;;;;;;2.73;2.30;;;;;;;15.33;nan;97614.38;4942329;29;20664;-72
2022/09/30 13:31:34;;;;;;;3.70;2.10;;;;;;;15.36;nan;97608.53;4990213;28;20227;-72
2022/09/30 13:34:24;;;;;;;2.37;2.10;;;;;;;15.23;nan;97619.66;4994009;28;20650;-72
2022/09/30 13:37:20;;;;;;;5.13;1.83;;;;;;;15.12;nan;97617.19;4993974;28;20218;-72
2022/09/30 13:42:57;;;;;;;2.80;2.13;;;;;;;15.18;nan;97616.97;4991234;28;20208;-71
2022/09/30 13:45:39;;;;;;;2.77;1.90;;;;;;;15.35;nan;97619.50;5006254;28;20448;-72
2022/09/30 13:48:19;;;;;;;2.37;2.00;;;;;;;15.14;nan;97621.22;4993072;28;20237;-71
2022/09/30 13:51:04;;;;;;;2.97;2.10;;;;;;;15.34;nan;97618.69;4993045;28;20226;-72
2022/09/30 13:53:57;;;;;;;2.93;1.70;;;;;;;15.35;nan;97614.13;4992679;28;20207;-72
2022/09/30 13:56:39;;;;;;;2.53;1.90;;;;;;;15.37;nan;97620.06;4992961;28;20553;-71
2022/09/30 13:59:51;;;;;;;3.20;1.97;;;;;;;15.13;nan;97626.81;5005814;28;20229;-71
2022/09/30 14:03:02;;;;;;;2.90;2.10;;;;;;;15.19;nan;97629.28;4971420;28;20208;-72
2022/09/30 14:08:55;;;;;;;1.73;1.63;;;;;;;15.06;nan;97634.28;4992266;28;20240;-72
2022/09/30 14:11:49;;;;;;;4.17;2.30;;;;;;;15.05;nan;97636.16;4992827;28;20223;-72
2022/09/30 14:21:38;;;;;;;2.77;2.20;;;;;;;15.47;nan;97630.81;4995383;28;20231;-73
2022/09/30 14:24:27;;;;;;;2.50;2.00;;;;;;;15.37;nan;97639.59;4996154;28;20215;-72
2022/09/30 14:27:34;;;;;;;2.37;2.13;;;;;;;15.37;nan;97644.16;4996040;28;20199;-73
2022/09/30 14:30:20;;;;;;;3.73;2.23;;;;;;;15.15;nan;97646.91;4995806;28;20235;-72
2022/09/30 14:32:49;;;;;;;2.80;2.47;;;;;;;15.40;nan;97638.28;4995009;28;20242;-73
2022/09/30 14:35:41;;;;;;;2.67;2.30;;;;;;;15.25;nan;97638.94;4995755;28;20625;-73
2022/09/30 14:38:19;;;;;;;2.77;2.13;;;;;;;15.14;nan;97642.63;5026019;28;20214;-73
2022/09/30 14:40:51;;;;;;;3.07;2.20;;;;;;;15.15;nan;97636.22;4995938;28;20234;-71
2022/09/30 14:43:25;;;;;;;2.73;2.30;;;;;;;15.12;nan;97639.41;4996231;28;20211;-71
2022/09/30 14:46:00;;;;;;;3.57;2.53;;;;;;;15.04;nan;97642.56;4996041;28;20196;-71
2022/09/30 14:48:35;;;;;;;4.20;1.97;;;;;;;15.11;nan;97645.81;4995342;28;20381;-71
2022/09/30 14:51:04;;;;;;;2.83;2.33;;;;;;;15.01;nan;97642.28;4995764;28;20226;-71
2022/09/30 14:53:39;;;;;;;4.37;1.90;;;;;;;15.07;nan;97641.25;4995892;28;20245;-71